sensor_id;sensor_type;location;lat;lon;timestamp;temperature;humidity
5723;DHT22;2886;49.722;8.612;2023-07-29T00:01:21;19.40;99.90
5723;DHT22;2886;49.722;8.612;2023-07-29T00:03:47;19.40;99.90
5723;DHT22;2886;49.722;8.612;2023-07-29T00:06:13;19.40;99.90
5723;DHT22;2886;49.722;8.612;2023-07-29T00:08:39;19.40;99.90
5723;DHT22;2886;49.722;8.612;2023-07-29T00:11:05;19.40;99.90
5723;DHT22;2886;49.722;8.612;2023-07-29T00:13:30;19.40;99.90
5723;DHT22;2886;49.722;8.612;2023-07-29T00:15:56;19.40;99.90
5723;DHT22;2886;49.722;8.612;2023-07-29T00:18:22;19.40;99.90
5723;DHT22;2886;49.722;8.612;2023-07-29T00:20:49;19.40;99.90
5723;DHT22;2886;49.722;8.612;2023-07-29T00:23:16;19.40;99.90
5723;DHT22;2886;49.722;8.612;2023-07-29T00:25:43;19.40;99.90
5723;DHT22;2886;49.722;8.612;2023-07-29T00:28:09;19.40;99.90
5723;DHT22;2886;49.722;8.612;2023-07-29T00:30:35;19.40;99.90
5723;DHT22;2886;49.722;8.612;2023-07-29T00:33:00;19.40;99.90
5723;DHT22;2886;49.722;8.612;2023-07-29T00:35:26;19.40;99.90
5723;DHT22;2886;49.722;8.612;2023-07-29T00:37:52;19.50;99.90
5723;DHT22;2886;49.722;8.612;2023-07-29T00:40:22;19.50;99.90
5723;DHT22;2886;49.722;8.612;2023-07-29T00:42:48;19.50;99.90
5723;DHT22;2886;49.722;8.612;2023-07-29T00:45:14;19.50;99.90
5723;DHT22;2886;49.722;8.612;2023-07-29T00:47:40;19.50;99.90
5723;DHT22;2886;49.722;8.612;2023-07-29T00:50:07;19.50;99.90
5723;DHT22;2886;49.722;8.612;2023-07-29T00:52:34;19.60;99.90
5723;DHT22;2886;49.722;8.612;2023-07-29T00:55:00;19.70;99.90
5723;DHT22;2886;49.722;8.612;2023-07-29T00:57:26;19.70;99.90
5723;DHT22;2886;49.722;8.612;2023-07-29T00:59:54;19.70;99.90
5723;DHT22;2886;49.722;8.612;2023-07-29T01:02:19;19.70;99.90
5723;DHT22;2886;49.722;8.612;2023-07-29T01:04:45;19.70;99.90
5723;DHT22;2886;49.722;8.612;2023-07-29T01:07:14;19.60;99.90
5723;DHT22;2886;49.722;8.612;2023-07-29T01:10:01;19.60;99.90
5723;DHT22;2886;49.722;8.612;2023-07-29T01:13:17;19.50;99.90
5723;DHT22;2886;49.722;8.612;2023-07-29T01:15:43;19.50;99.90
5723;DHT22;2886;49.722;8.612;2023-07-29T01:18:18;19.50;99.90
5723;DHT22;2886;49.722;8.612;2023-07-29T01:20:47;19.50;99.90
5723;DHT22;2886;49.722;8.612;2023-07-29T01:23:15;19.50;99.90
5723;DHT22;2886;49.722;8.612;2023-07-29T01:25:41;19.40;99.90
5723;DHT22;2886;49.722;8.612;2023-07-29T01:28:07;19.40;99.90
5723;DHT22;2886;49.722;8.612;2023-07-29T01:30:39;19.40;99.90
5723;DHT22;2886;49.722;8.612;2023-07-29T01:33:21;19.40;99.90
5723;DHT22;2886;49.722;8.612;2023-07-29T01:35:57;19.40;99.90
5723;DHT22;2886;49.722;8.612;2023-07-29T01:38:43;19.40;99.90
5723;DHT22;2886;49.722;8.612;2023-07-29T01:41:09;19.50;99.90
5723;DHT22;2886;49.722;8.612;2023-07-29T01:43:37;19.50;99.90
5723;DHT22;2886;49.722;8.612;2023-07-29T01:46:12;19.50;99.90
5723;DHT22;2886;49.722;8.612;2023-07-29T01:48:38;19.60;99.90
5723;DHT22;2886;49.722;8.612;2023-07-29T01:51:05;19.60;99.90
5723;DHT22;2886;49.722;8.612;2023-07-29T01:53:31;19.60;99.90
5723;DHT22;2886;49.722;8.612;2023-07-29T01:55:56;19.60;99.90
5723;DHT22;2886;49.722;8.612;2023-07-29T01:58:23;19.70;99.90
5723;DHT22;2886;49.722;8.612;2023-07-29T02:00:48;19.60;99.90
5723;DHT22;2886;49.722;8.612;2023-07-29T02:03:14;19.70;99.90
5723;DHT22;2886;49.722;8.612;2023-07-29T02:05:40;19.60;99.90
5723;DHT22;2886;49.722;8.612;2023-07-29T02:08:05;19.60;99.90
5723;DHT22;2886;49.722;8.612;2023-07-29T02:10:31;19.60;99.90
5723;DHT22;2886;49.722;8.612;2023-07-29T02:12:57;19.60;99.90
5723;DHT22;2886;49.722;8.612;2023-07-29T02:15:22;19.60;99.90
5723;DHT22;2886;49.722;8.612;2023-07-29T02:17:50;19.60;99.90
5723;DHT22;2886;49.722;8.612;2023-07-29T02:20:16;19.60;99.90
5723;DHT22;2886;49.722;8.612;2023-07-29T02:22:41;19.60;99.90
5723;DHT22;2886;49.722;8.612;2023-07-29T02:25:07;19.60;99.90
5723;DHT22;2886;49.722;8.612;2023-07-29T02:27:34;19.60;99.90
5723;DHT22;2886;49.722;8.612;2023-07-29T02:30:00;19.50;99.90
5723;DHT22;2886;49.722;8.612;2023-07-29T02:32:25;19.50;99.90
5723;DHT22;2886;49.722;8.612;2023-07-29T02:34:51;19.50;99.90
5723;DHT22;2886;49.722;8.612;2023-07-29T02:37:17;19.50;99.90
5723;DHT22;2886;49.722;8.612;2023-07-29T02:39:43;19.50;99.90
5723;DHT22;2886;49.722;8.612;2023-07-29T02:42:09;19.50;99.90
5723;DHT22;2886;49.722;8.612;2023-07-29T02:44:34;19.60;99.90
5723;DHT22;2886;49.722;8.612;2023-07-29T02:47:00;19.60;99.90
5723;DHT22;2886;49.722;8.612;2023-07-29T02:49:26;19.60;99.90
5723;DHT22;2886;49.722;8.612;2023-07-29T02:51:51;19.60;99.90
5723;DHT22;2886;49.722;8.612;2023-07-29T02:54:17;19.60;99.90
5723;DHT22;2886;49.722;8.612;2023-07-29T02:56:42;19.60;99.90
5723;DHT22;2886;49.722;8.612;2023-07-29T02:59:08;19.60;99.90
5723;DHT22;2886;49.722;8.612;2023-07-29T03:01:33;19.60;99.90
5723;DHT22;2886;49.722;8.612;2023-07-29T03:03:59;19.60;99.90
5723;DHT22;2886;49.722;8.612;2023-07-29T03:06:25;19.60;99.90
5723;DHT22;2886;49.722;8.612;2023-07-29T03:08:51;19.60;99.90
5723;DHT22;2886;49.722;8.612;2023-07-29T03:11:16;19.60;99.90
5723;DHT22;2886;49.722;8.612;2023-07-29T03:13:43;19.60;99.90
5723;DHT22;2886;49.722;8.612;2023-07-29T03:18:35;19.60;99.90
5723;DHT22;2886;49.722;8.612;2023-07-29T03:21:02;19.50;99.90
5723;DHT22;2886;49.722;8.612;2023-07-29T03:23:29;19.50;99.90
5723;DHT22;2886;49.722;8.612;2023-07-29T03:25:55;19.60;99.90
5723;DHT22;2886;49.722;8.612;2023-07-29T03:28:24;19.60;99.90
5723;DHT22;2886;49.722;8.612;2023-07-29T03:30:49;19.60;99.90
5723;DHT22;2886;49.722;8.612;2023-07-29T03:33:15;19.60;99.90
5723;DHT22;2886;49.722;8.612;2023-07-29T03:35:40;19.60;99.90
5723;DHT22;2886;49.722;8.612;2023-07-29T03:38:10;19.60;99.90
5723;DHT22;2886;49.722;8.612;2023-07-29T03:40:36;19.60;99.90
5723;DHT22;2886;49.722;8.612;2023-07-29T03:43:01;19.60;99.90
5723;DHT22;2886;49.722;8.612;2023-07-29T03:45:27;19.60;99.90
5723;DHT22;2886;49.722;8.612;2023-07-29T03:47:53;19.60;99.90
5723;DHT22;2886;49.722;8.612;2023-07-29T03:50:18;19.50;99.90
5723;DHT22;2886;49.722;8.612;2023-07-29T03:52:44;19.60;99.90
5723;DHT22;2886;49.722;8.612;2023-07-29T03:55:10;19.60;99.90
5723;DHT22;2886;49.722;8.612;2023-07-29T03:57:35;19.60;99.90
5723;DHT22;2886;49.722;8.612;2023-07-29T04:00:02;19.60;99.90
5723;DHT22;2886;49.722;8.612;2023-07-29T04:02:28;19.60;99.90
5723;DHT22;2886;49.722;8.612;2023-07-29T04:04:54;19.60;99.90
5723;DHT22;2886;49.722;8.612;2023-07-29T04:07:19;19.60;99.90
5723;DHT22;2886;49.722;8.612;2023-07-29T04:09:45;19.60;99.90
5723;DHT22;2886;49.722;8.612;2023-07-29T04:12:11;19.60;99.90
5723;DHT22;2886;49.722;8.612;2023-07-29T04:14:37;19.60;99.90
5723;DHT22;2886;49.722;8.612;2023-07-29T04:17:02;19.60;99.90
5723;DHT22;2886;49.722;8.612;2023-07-29T04:19:28;19.60;99.90
5723;DHT22;2886;49.722;8.612;2023-07-29T04:21:53;19.60;99.90
5723;DHT22;2886;49.722;8.612;2023-07-29T04:24:19;19.60;99.90
5723;DHT22;2886;49.722;8.612;2023-07-29T04:26:45;19.60;99.90
5723;DHT22;2886;49.722;8.612;2023-07-29T04:29:11;19.60;99.90
5723;DHT22;2886;49.722;8.612;2023-07-29T04:31:37;19.50;99.90
5723;DHT22;2886;49.722;8.612;2023-07-29T04:34:05;19.50;99.90
5723;DHT22;2886;49.722;8.612;2023-07-29T04:36:30;19.60;99.90
5723;DHT22;2886;49.722;8.612;2023-07-29T04:38:56;19.60;99.90
5723;DHT22;2886;49.722;8.612;2023-07-29T04:41:22;19.60;99.90
5723;DHT22;2886;49.722;8.612;2023-07-29T04:43:47;19.60;99.90
5723;DHT22;2886;49.722;8.612;2023-07-29T04:46:15;19.60;99.90
5723;DHT22;2886;49.722;8.612;2023-07-29T04:48:40;19.60;99.90
5723;DHT22;2886;49.722;8.612;2023-07-29T04:51:06;19.60;99.90
5723;DHT22;2886;49.722;8.612;2023-07-29T04:53:32;19.70;99.90
5723;DHT22;2886;49.722;8.612;2023-07-29T04:55:58;19.70;99.90
5723;DHT22;2886;49.722;8.612;2023-07-29T04:58:23;19.70;99.90
5723;DHT22;2886;49.722;8.612;2023-07-29T05:00:49;19.80;99.90
5723;DHT22;2886;49.722;8.612;2023-07-29T05:03:14;19.80;99.90
5723;DHT22;2886;49.722;8.612;2023-07-29T05:05:40;19.80;99.90
5723;DHT22;2886;49.722;8.612;2023-07-29T05:08:06;19.90;99.90
5723;DHT22;2886;49.722;8.612;2023-07-29T05:10:32;20.00;99.90
5723;DHT22;2886;49.722;8.612;2023-07-29T05:12:57;20.00;99.90
5723;DHT22;2886;49.722;8.612;2023-07-29T05:15:24;20.10;99.90
5723;DHT22;2886;49.722;8.612;2023-07-29T05:17:49;20.10;99.90
5723;DHT22;2886;49.722;8.612;2023-07-29T05:20:15;20.10;99.90
5723;DHT22;2886;49.722;8.612;2023-07-29T05:22:41;20.10;99.90
5723;DHT22;2886;49.722;8.612;2023-07-29T05:25:07;20.10;99.90
5723;DHT22;2886;49.722;8.612;2023-07-29T05:27:32;20.10;99.90
5723;DHT22;2886;49.722;8.612;2023-07-29T05:29:58;20.10;99.90
5723;DHT22;2886;49.722;8.612;2023-07-29T05:32:24;20.00;99.90
5723;DHT22;2886;49.722;8.612;2023-07-29T05:34:49;20.00;99.90
5723;DHT22;2886;49.722;8.612;2023-07-29T05:37:15;19.90;99.90
5723;DHT22;2886;49.722;8.612;2023-07-29T05:39:42;19.90;99.90
5723;DHT22;2886;49.722;8.612;2023-07-29T05:42:07;20.00;99.90
5723;DHT22;2886;49.722;8.612;2023-07-29T05:44:33;20.00;99.90
5723;DHT22;2886;49.722;8.612;2023-07-29T05:46:59;20.00;99.90
5723;DHT22;2886;49.722;8.612;2023-07-29T05:49:24;20.10;99.90
5723;DHT22;2886;49.722;8.612;2023-07-29T05:51:50;20.10;99.90
5723;DHT22;2886;49.722;8.612;2023-07-29T05:54:18;20.10;99.90
5723;DHT22;2886;49.722;8.612;2023-07-29T05:56:44;20.10;99.90
5723;DHT22;2886;49.722;8.612;2023-07-29T05:59:09;20.10;99.90
5723;DHT22;2886;49.722;8.612;2023-07-29T06:01:35;20.10;99.90
5723;DHT22;2886;49.722;8.612;2023-07-29T06:04:01;20.00;99.90
5723;DHT22;2886;49.722;8.612;2023-07-29T06:06:27;20.00;99.90
5723;DHT22;2886;49.722;8.612;2023-07-29T06:08:52;19.90;99.90
5723;DHT22;2886;49.722;8.612;2023-07-29T06:11:18;19.80;99.90
5723;DHT22;2886;49.722;8.612;2023-07-29T06:13:44;19.80;99.90
5723;DHT22;2886;49.722;8.612;2023-07-29T06:16:09;19.70;99.90
5723;DHT22;2886;49.722;8.612;2023-07-29T06:18:35;19.60;99.90
5723;DHT22;2886;49.722;8.612;2023-07-29T06:21:00;19.50;99.90
5723;DHT22;2886;49.722;8.612;2023-07-29T06:23:26;19.60;99.90
5723;DHT22;2886;49.722;8.612;2023-07-29T06:25:51;19.50;99.90
5723;DHT22;2886;49.722;8.612;2023-07-29T06:28:18;19.50;99.90
5723;DHT22;2886;49.722;8.612;2023-07-29T06:30:44;19.50;99.90
5723;DHT22;2886;49.722;8.612;2023-07-29T06:33:10;19.50;99.90
5723;DHT22;2886;49.722;8.612;2023-07-29T06:35:35;19.60;99.90
5723;DHT22;2886;49.722;8.612;2023-07-29T06:38:01;19.70;99.90
5723;DHT22;2886;49.722;8.612;2023-07-29T06:40:27;19.80;99.90
5723;DHT22;2886;49.722;8.612;2023-07-29T06:42:52;19.80;99.90
5723;DHT22;2886;49.722;8.612;2023-07-29T06:45:18;19.90;99.90
5723;DHT22;2886;49.722;8.612;2023-07-29T06:47:44;19.90;99.90
5723;DHT22;2886;49.722;8.612;2023-07-29T06:50:10;19.80;99.90
5723;DHT22;2886;49.722;8.612;2023-07-29T06:52:35;19.80;99.90
5723;DHT22;2886;49.722;8.612;2023-07-29T06:55:02;19.80;99.90
5723;DHT22;2886;49.722;8.612;2023-07-29T06:57:28;19.70;99.90
5723;DHT22;2886;49.722;8.612;2023-07-29T06:59:53;19.70;99.90
5723;DHT22;2886;49.722;8.612;2023-07-29T07:02:19;19.60;99.90
5723;DHT22;2886;49.722;8.612;2023-07-29T07:04:45;19.50;99.90
5723;DHT22;2886;49.722;8.612;2023-07-29T07:07:10;19.40;99.90
5723;DHT22;2886;49.722;8.612;2023-07-29T07:09:36;19.30;99.90
5723;DHT22;2886;49.722;8.612;2023-07-29T07:12:02;19.20;99.90
5723;DHT22;2886;49.722;8.612;2023-07-29T07:14:27;19.10;99.90
5723;DHT22;2886;49.722;8.612;2023-07-29T07:16:53;19.00;99.90
5723;DHT22;2886;49.722;8.612;2023-07-29T07:19:18;19.00;99.90
5723;DHT22;2886;49.722;8.612;2023-07-29T07:21:44;18.90;99.90
5723;DHT22;2886;49.722;8.612;2023-07-29T07:24:11;18.90;99.90
5723;DHT22;2886;49.722;8.612;2023-07-29T07:26:37;19.00;99.90
5723;DHT22;2886;49.722;8.612;2023-07-29T07:29:02;19.00;99.90
5723;DHT22;2886;49.722;8.612;2023-07-29T07:31:28;18.90;99.90
5723;DHT22;2886;49.722;8.612;2023-07-29T07:33:53;18.90;99.90
5723;DHT22;2886;49.722;8.612;2023-07-29T07:36:19;18.90;99.90
5723;DHT22;2886;49.722;8.612;2023-07-29T07:38:44;18.90;99.90
5723;DHT22;2886;49.722;8.612;2023-07-29T07:41:10;18.90;99.90
5723;DHT22;2886;49.722;8.612;2023-07-29T07:43:36;18.80;99.90
5723;DHT22;2886;49.722;8.612;2023-07-29T07:46:03;18.80;99.90
5723;DHT22;2886;49.722;8.612;2023-07-29T07:48:29;18.70;99.90
5723;DHT22;2886;49.722;8.612;2023-07-29T07:50:54;18.70;99.90
5723;DHT22;2886;49.722;8.612;2023-07-29T07:53:20;18.70;99.90
5723;DHT22;2886;49.722;8.612;2023-07-29T07:55:46;18.60;99.90
5723;DHT22;2886;49.722;8.612;2023-07-29T07:58:12;18.50;99.90
5723;DHT22;2886;49.722;8.612;2023-07-29T08:00:38;18.50;99.90
5723;DHT22;2886;49.722;8.612;2023-07-29T08:03:04;18.50;99.90
5723;DHT22;2886;49.722;8.612;2023-07-29T08:05:30;18.50;99.90
5723;DHT22;2886;49.722;8.612;2023-07-29T08:07:56;18.40;99.90
5723;DHT22;2886;49.722;8.612;2023-07-29T08:10:22;18.50;99.90
5723;DHT22;2886;49.722;8.612;2023-07-29T08:12:48;18.50;99.90
5723;DHT22;2886;49.722;8.612;2023-07-29T08:15:13;18.60;99.90
5723;DHT22;2886;49.722;8.612;2023-07-29T08:17:39;18.70;99.90
5723;DHT22;2886;49.722;8.612;2023-07-29T08:20:05;18.70;99.90
5723;DHT22;2886;49.722;8.612;2023-07-29T08:22:31;18.80;99.90
5723;DHT22;2886;49.722;8.612;2023-07-29T08:24:57;18.90;99.90
5723;DHT22;2886;49.722;8.612;2023-07-29T08:27:22;19.00;99.90
5723;DHT22;2886;49.722;8.612;2023-07-29T08:29:48;19.00;99.90
5723;DHT22;2886;49.722;8.612;2023-07-29T08:32:14;19.10;99.90
5723;DHT22;2886;49.722;8.612;2023-07-29T08:34:39;19.10;99.90
5723;DHT22;2886;49.722;8.612;2023-07-29T08:37:05;19.30;99.90
5723;DHT22;2886;49.722;8.612;2023-07-29T08:39:31;19.50;99.90
5723;DHT22;2886;49.722;8.612;2023-07-29T08:42:02;19.70;99.90
5723;DHT22;2886;49.722;8.612;2023-07-29T08:44:35;19.90;99.90
5723;DHT22;2886;49.722;8.612;2023-07-29T08:47:05;20.00;99.90
5723;DHT22;2886;49.722;8.612;2023-07-29T08:49:31;20.10;99.90
5723;DHT22;2886;49.722;8.612;2023-07-29T08:51:57;20.20;99.90
5723;DHT22;2886;49.722;8.612;2023-07-29T08:54:23;20.60;99.90
5723;DHT22;2886;49.722;8.612;2023-07-29T08:56:49;21.00;99.90
5723;DHT22;2886;49.722;8.612;2023-07-29T08:59:16;21.10;99.90
5723;DHT22;2886;49.722;8.612;2023-07-29T09:01:42;21.20;99.90
5723;DHT22;2886;49.722;8.612;2023-07-29T09:04:09;21.10;99.90
5723;DHT22;2886;49.722;8.612;2023-07-29T09:06:35;21.10;99.90
5723;DHT22;2886;49.722;8.612;2023-07-29T09:09:02;21.10;99.90
5723;DHT22;2886;49.722;8.612;2023-07-29T09:11:28;21.20;99.90
5723;DHT22;2886;49.722;8.612;2023-07-29T09:13:54;21.40;99.90
5723;DHT22;2886;49.722;8.612;2023-07-29T09:16:22;21.50;99.90
5723;DHT22;2886;49.722;8.612;2023-07-29T09:18:49;21.60;99.90
5723;DHT22;2886;49.722;8.612;2023-07-29T09:21:23;21.80;99.90
5723;DHT22;2886;49.722;8.612;2023-07-29T09:23:50;21.80;99.90
5723;DHT22;2886;49.722;8.612;2023-07-29T09:26:23;21.90;99.90
5723;DHT22;2886;49.722;8.612;2023-07-29T09:28:52;21.90;99.90
5723;DHT22;2886;49.722;8.612;2023-07-29T09:31:20;22.00;99.90
5723;DHT22;2886;49.722;8.612;2023-07-29T09:33:46;22.00;99.90
5723;DHT22;2886;49.722;8.612;2023-07-29T09:36:12;22.00;99.90
5723;DHT22;2886;49.722;8.612;2023-07-29T09:38:37;21.90;99.90
5723;DHT22;2886;49.722;8.612;2023-07-29T09:41:04;21.70;99.90
5723;DHT22;2886;49.722;8.612;2023-07-29T09:43:31;21.60;99.90
5723;DHT22;2886;49.722;8.612;2023-07-29T09:46:04;21.80;99.90
5723;DHT22;2886;49.722;8.612;2023-07-29T09:48:35;22.30;99.90
5723;DHT22;2886;49.722;8.612;2023-07-29T09:51:13;22.80;99.90
5723;DHT22;2886;49.722;8.612;2023-07-29T09:53:46;22.90;99.90
5723;DHT22;2886;49.722;8.612;2023-07-29T09:56:13;23.00;99.90
5723;DHT22;2886;49.722;8.612;2023-07-29T09:58:39;22.90;99.90
5723;DHT22;2886;49.722;8.612;2023-07-29T10:01:06;22.80;99.90
5723;DHT22;2886;49.722;8.612;2023-07-29T10:03:32;22.70;99.90
5723;DHT22;2886;49.722;8.612;2023-07-29T10:06:06;22.80;99.90
5723;DHT22;2886;49.722;8.612;2023-07-29T10:08:32;22.90;99.90
5723;DHT22;2886;49.722;8.612;2023-07-29T10:11:01;23.00;99.90
5723;DHT22;2886;49.722;8.612;2023-07-29T10:13:28;23.20;99.90
5723;DHT22;2886;49.722;8.612;2023-07-29T10:15:54;23.30;99.90
5723;DHT22;2886;49.722;8.612;2023-07-29T10:18:22;23.50;99.90
5723;DHT22;2886;49.722;8.612;2023-07-29T10:20:50;23.70;99.90
5723;DHT22;2886;49.722;8.612;2023-07-29T10:23:18;23.90;99.90
5723;DHT22;2886;49.722;8.612;2023-07-29T10:25:50;24.00;99.90
5723;DHT22;2886;49.722;8.612;2023-07-29T10:28:20;23.90;99.90
5723;DHT22;2886;49.722;8.612;2023-07-29T10:30:51;23.80;99.90
5723;DHT22;2886;49.722;8.612;2023-07-29T10:33:17;23.90;99.90
5723;DHT22;2886;49.722;8.612;2023-07-29T10:35:43;24.20;99.90
5723;DHT22;2886;49.722;8.612;2023-07-29T10:38:09;24.50;99.90
5723;DHT22;2886;49.722;8.612;2023-07-29T10:40:50;24.60;99.90
5723;DHT22;2886;49.722;8.612;2023-07-29T10:43:36;24.50;99.90
5723;DHT22;2886;49.722;8.612;2023-07-29T10:48:52;24.30;99.90
5723;DHT22;2886;49.722;8.612;2023-07-29T10:51:26;24.30;99.90
5723;DHT22;2886;49.722;8.612;2023-07-29T10:53:57;24.60;99.90
5723;DHT22;2886;49.722;8.612;2023-07-29T10:56:33;24.90;99.90
5723;DHT22;2886;49.722;8.612;2023-07-29T11:01:41;24.50;99.90
5723;DHT22;2886;49.722;8.612;2023-07-29T11:12:35;25.30;99.90
5723;DHT22;2886;49.722;8.612;2023-07-29T11:15:24;25.60;99.90
5723;DHT22;2886;49.722;8.612;2023-07-29T11:17:58;26.30;99.90
5723;DHT22;2886;49.722;8.612;2023-07-29T11:20:29;26.60;99.90
5723;DHT22;2886;49.722;8.612;2023-07-29T11:22:57;26.20;99.90
5723;DHT22;2886;49.722;8.612;2023-07-29T11:25:24;26.30;99.90
5723;DHT22;2886;49.722;8.612;2023-07-29T11:27:52;26.50;99.90
5723;DHT22;2886;49.722;8.612;2023-07-29T11:30:18;27.00;99.90
5723;DHT22;2886;49.722;8.612;2023-07-29T11:32:45;27.10;99.90
5723;DHT22;2886;49.722;8.612;2023-07-29T11:35:16;26.90;99.70
5723;DHT22;2886;49.722;8.612;2023-07-29T11:37:50;26.90;99.90
5723;DHT22;2886;49.722;8.612;2023-07-29T11:40:17;26.90;99.90
5723;DHT22;2886;49.722;8.612;2023-07-29T11:42:45;27.30;99.90
5723;DHT22;2886;49.722;8.612;2023-07-29T11:45:11;27.30;99.90
5723;DHT22;2886;49.722;8.612;2023-07-29T11:47:36;27.30;98.00
5723;DHT22;2886;49.722;8.612;2023-07-29T11:50:05;26.90;97.40
5723;DHT22;2886;49.722;8.612;2023-07-29T11:52:32;26.40;99.90
5723;DHT22;2886;49.722;8.612;2023-07-29T11:54:59;26.10;99.90
5723;DHT22;2886;49.722;8.612;2023-07-29T11:57:25;26.10;99.90
5723;DHT22;2886;49.722;8.612;2023-07-29T11:59:51;25.90;99.90
5723;DHT22;2886;49.722;8.612;2023-07-29T12:02:17;25.70;99.90
5723;DHT22;2886;49.722;8.612;2023-07-29T12:04:46;25.90;99.90
5723;DHT22;2886;49.722;8.612;2023-07-29T12:07:13;25.80;99.30
5723;DHT22;2886;49.722;8.612;2023-07-29T12:09:41;26.00;98.30
5723;DHT22;2886;49.722;8.612;2023-07-29T12:12:07;26.20;99.90
5723;DHT22;2886;49.722;8.612;2023-07-29T12:14:33;25.90;99.90
5723;DHT22;2886;49.722;8.612;2023-07-29T12:17:04;25.70;97.20
5723;DHT22;2886;49.722;8.612;2023-07-29T12:19:34;26.10;96.50
5723;DHT22;2886;49.722;8.612;2023-07-29T12:22:04;25.90;97.20
5723;DHT22;2886;49.722;8.612;2023-07-29T12:24:31;25.70;96.50
5723;DHT22;2886;49.722;8.612;2023-07-29T12:26:57;25.30;95.20
5723;DHT22;2886;49.722;8.612;2023-07-29T12:29:24;25.20;94.40
5723;DHT22;2886;49.722;8.612;2023-07-29T12:32:03;25.50;92.80
5723;DHT22;2886;49.722;8.612;2023-07-29T12:34:30;25.90;88.30
5723;DHT22;2886;49.722;8.612;2023-07-29T12:36:58;26.40;81.40
5723;DHT22;2886;49.722;8.612;2023-07-29T12:39:28;26.70;73.30
5723;DHT22;2886;49.722;8.612;2023-07-29T12:41:58;26.90;67.70
5723;DHT22;2886;49.722;8.612;2023-07-29T12:44:24;27.10;61.80
5723;DHT22;2886;49.722;8.612;2023-07-29T12:46:51;26.90;58.20
5723;DHT22;2886;49.722;8.612;2023-07-29T12:49:17;26.50;60.80
5723;DHT22;2886;49.722;8.612;2023-07-29T12:51:43;26.40;63.90
5723;DHT22;2886;49.722;8.612;2023-07-29T12:54:09;26.60;59.90
5723;DHT22;2886;49.722;8.612;2023-07-29T12:56:34;26.90;57.40
5723;DHT22;2886;49.722;8.612;2023-07-29T12:59:00;26.90;54.70
5723;DHT22;2886;49.722;8.612;2023-07-29T13:01:27;27.00;52.10
5723;DHT22;2886;49.722;8.612;2023-07-29T13:03:53;27.00;53.00
5723;DHT22;2886;49.722;8.612;2023-07-29T13:06:18;27.20;51.30
5723;DHT22;2886;49.722;8.612;2023-07-29T13:08:45;27.20;50.80
5723;DHT22;2886;49.722;8.612;2023-07-29T13:11:11;26.90;49.20
5723;DHT22;2886;49.722;8.612;2023-07-29T13:13:36;26.60;50.30
5723;DHT22;2886;49.722;8.612;2023-07-29T13:16:02;26.60;52.60
5723;DHT22;2886;49.722;8.612;2023-07-29T13:18:28;26.70;51.50
5723;DHT22;2886;49.722;8.612;2023-07-29T13:20:54;26.90;51.80
5723;DHT22;2886;49.722;8.612;2023-07-29T13:23:20;27.00;50.80
5723;DHT22;2886;49.722;8.612;2023-07-29T13:25:46;27.20;49.70
5723;DHT22;2886;49.722;8.612;2023-07-29T13:28:12;27.30;49.90
5723;DHT22;2886;49.722;8.612;2023-07-29T13:30:41;27.30;50.00
5723;DHT22;2886;49.722;8.612;2023-07-29T13:33:08;27.30;48.40
5723;DHT22;2886;49.722;8.612;2023-07-29T13:35:34;27.30;51.30
5723;DHT22;2886;49.722;8.612;2023-07-29T13:38:00;27.40;50.90
5723;DHT22;2886;49.722;8.612;2023-07-29T13:40:26;27.40;51.30
5723;DHT22;2886;49.722;8.612;2023-07-29T13:42:51;27.40;50.70
5723;DHT22;2886;49.722;8.612;2023-07-29T13:45:18;27.40;49.60
5723;DHT22;2886;49.722;8.612;2023-07-29T13:47:43;27.40;49.00
5723;DHT22;2886;49.722;8.612;2023-07-29T13:50:09;27.30;50.50
5723;DHT22;2886;49.722;8.612;2023-07-29T13:52:36;27.50;51.10
5723;DHT22;2886;49.722;8.612;2023-07-29T13:55:02;27.50;50.00
5723;DHT22;2886;49.722;8.612;2023-07-29T13:57:27;27.60;50.10
5723;DHT22;2886;49.722;8.612;2023-07-29T13:59:53;27.60;49.60
5723;DHT22;2886;49.722;8.612;2023-07-29T14:02:18;27.70;50.10
5723;DHT22;2886;49.722;8.612;2023-07-29T14:04:44;27.60;48.20
5723;DHT22;2886;49.722;8.612;2023-07-29T14:07:09;27.70;49.80
5723;DHT22;2886;49.722;8.612;2023-07-29T14:09:35;27.80;46.90
5723;DHT22;2886;49.722;8.612;2023-07-29T14:12:01;27.90;47.70
5723;DHT22;2886;49.722;8.612;2023-07-29T14:14:27;27.90;47.40
5723;DHT22;2886;49.722;8.612;2023-07-29T14:16:53;28.10;47.20
5723;DHT22;2886;49.722;8.612;2023-07-29T14:19:18;28.20;48.80
5723;DHT22;2886;49.722;8.612;2023-07-29T14:21:44;28.10;45.90
5723;DHT22;2886;49.722;8.612;2023-07-29T14:24:11;28.10;46.00
5723;DHT22;2886;49.722;8.612;2023-07-29T14:26:37;27.90;47.30
5723;DHT22;2886;49.722;8.612;2023-07-29T14:29:02;28.00;48.30
5723;DHT22;2886;49.722;8.612;2023-07-29T14:31:28;28.00;46.90
5723;DHT22;2886;49.722;8.612;2023-07-29T14:33:55;28.00;48.50
5723;DHT22;2886;49.722;8.612;2023-07-29T14:36:20;28.10;47.30
5723;DHT22;2886;49.722;8.612;2023-07-29T14:38:46;28.10;48.10
5723;DHT22;2886;49.722;8.612;2023-07-29T14:41:12;28.50;49.60
5723;DHT22;2886;49.722;8.612;2023-07-29T14:43:38;28.80;45.90
5723;DHT22;2886;49.722;8.612;2023-07-29T14:46:04;29.00;47.70
5723;DHT22;2886;49.722;8.612;2023-07-29T14:48:30;29.10;45.10
5723;DHT22;2886;49.722;8.612;2023-07-29T14:50:56;29.10;45.40
5723;DHT22;2886;49.722;8.612;2023-07-29T14:53:21;28.80;45.90
5723;DHT22;2886;49.722;8.612;2023-07-29T14:55:47;28.70;47.00
5723;DHT22;2886;49.722;8.612;2023-07-29T14:58:12;28.50;46.50
5723;DHT22;2886;49.722;8.612;2023-07-29T15:00:38;28.20;47.60
5723;DHT22;2886;49.722;8.612;2023-07-29T15:03:03;28.10;48.20
5723;DHT22;2886;49.722;8.612;2023-07-29T15:05:29;27.80;48.00
5723;DHT22;2886;49.722;8.612;2023-07-29T15:07:55;27.70;49.00
5723;DHT22;2886;49.722;8.612;2023-07-29T15:10:21;27.60;48.70
5723;DHT22;2886;49.722;8.612;2023-07-29T15:12:46;27.50;50.10
5723;DHT22;2886;49.722;8.612;2023-07-29T15:15:12;27.40;49.40
5723;DHT22;2886;49.722;8.612;2023-07-29T15:17:38;27.30;50.30
5723;DHT22;2886;49.722;8.612;2023-07-29T15:20:04;27.20;50.50
5723;DHT22;2886;49.722;8.612;2023-07-29T15:22:30;27.20;51.40
5723;DHT22;2886;49.722;8.612;2023-07-29T15:24:59;27.30;51.70
5723;DHT22;2886;49.722;8.612;2023-07-29T15:27:28;27.40;51.00
5723;DHT22;2886;49.722;8.612;2023-07-29T15:29:54;27.40;50.60
5723;DHT22;2886;49.722;8.612;2023-07-29T15:32:20;27.30;52.10
5723;DHT22;2886;49.722;8.612;2023-07-29T15:34:46;27.30;53.50
5723;DHT22;2886;49.722;8.612;2023-07-29T15:37:12;27.30;51.90
5723;DHT22;2886;49.722;8.612;2023-07-29T15:39:38;27.30;51.70
5723;DHT22;2886;49.722;8.612;2023-07-29T15:42:04;27.30;51.30
5723;DHT22;2886;49.722;8.612;2023-07-29T15:44:29;27.40;51.80
5723;DHT22;2886;49.722;8.612;2023-07-29T15:46:55;27.40;51.30
5723;DHT22;2886;49.722;8.612;2023-07-29T15:49:22;27.40;50.80
5723;DHT22;2886;49.722;8.612;2023-07-29T15:51:48;27.40;51.50
5723;DHT22;2886;49.722;8.612;2023-07-29T15:54:15;27.30;51.80
5723;DHT22;2886;49.722;8.612;2023-07-29T15:56:40;27.10;52.80
5723;DHT22;2886;49.722;8.612;2023-07-29T15:59:07;26.90;53.40
5723;DHT22;2886;49.722;8.612;2023-07-29T16:01:32;26.80;54.50
5723;DHT22;2886;49.722;8.612;2023-07-29T16:03:58;26.70;55.20
5723;DHT22;2886;49.722;8.612;2023-07-29T16:06:25;26.70;57.50
5723;DHT22;2886;49.722;8.612;2023-07-29T16:08:51;26.60;58.20
5723;DHT22;2886;49.722;8.612;2023-07-29T16:11:16;26.60;59.00
5723;DHT22;2886;49.722;8.612;2023-07-29T16:13:42;26.60;59.60
5723;DHT22;2886;49.722;8.612;2023-07-29T16:16:09;26.60;56.50